createdAt,value
2018-06-30T00:00:20.996Z,80.43
2018-06-30T00:01:30.839Z,80.33
2018-06-30T00:02:41.010Z,81.01
2018-06-30T00:03:50.447Z,80.72
2018-06-30T00:05:00.572Z,80.62
2018-06-30T00:06:10.420Z,80.72
2018-06-30T00:07:20.507Z,80.62
2018-06-30T00:08:30.610Z,80.72
2018-06-30T00:09:40.707Z,81.01
2018-06-30T00:10:50.535Z,80.82
2018-06-30T00:12:00.619Z,81.07
2018-06-30T00:13:10.717Z,80.78
2018-06-30T00:14:20.870Z,81.2
2018-06-30T00:15:31.014Z,80.68
2018-06-30T00:16:41.142Z,80.68
2018-06-30T00:17:51.221Z,80.68
2018-06-30T00:19:01.022Z,81.35
2018-06-30T00:20:10.849Z,80.68
2018-06-30T00:21:20.932Z,81.16
2018-06-30T00:22:31.026Z,81.16
2018-06-30T00:23:41.107Z,81.26
2018-06-30T00:24:51.206Z,81.16
2018-06-30T00:26:00.760Z,81.35
2018-06-30T00:27:10.858Z,81.07
2018-06-30T00:28:20.942Z,81.16
2018-06-30T00:29:30.780Z,80.97
2018-06-30T00:30:40.853Z,81.07
2018-06-30T00:31:50.985Z,80.93
2018-06-30T00:33:00.794Z,81.02
2018-06-30T00:34:10.880Z,81.22
2018-06-30T00:35:20.960Z,81.32
2018-06-30T00:36:31.052Z,81.12
2018-06-30T00:37:41.145Z,80.74
2018-06-30T00:38:51.464Z,80.64
2018-06-30T00:40:01.557Z,80.54
2018-06-30T00:41:11.118Z,80.83
2018-06-30T00:42:21.192Z,80.74
2018-06-30T00:43:31.264Z,80.74
2018-06-30T00:44:41.354Z,80.83
2018-06-30T00:45:51.426Z,80.93
2018-06-30T00:47:01.241Z,80.83
2018-06-30T00:48:11.309Z,80.83
2018-06-30T00:49:21.416Z,81.12
2018-06-30T00:50:31.496Z,80.69
2018-06-30T00:51:41.624Z,80.83
2018-06-30T00:52:51.446Z,80.74
2018-06-30T00:54:01.257Z,80.51
2018-06-30T00:55:11.329Z,80.89
2018-06-30T00:56:21.404Z,80.51
2018-06-30T00:57:31.473Z,80.74
2018-06-30T00:58:41.275Z,80.6
2018-06-30T00:59:51.353Z,80.6
2018-06-30T01:01:01.174Z,80.69
2018-06-30T01:02:11.234Z,80.6
2018-06-30T01:03:21.312Z,80.51
2018-06-30T01:04:31.435Z,80.51
2018-06-30T01:05:41.531Z,80.69
2018-06-30T01:06:51.640Z,80.99
2018-06-30T01:08:01.446Z,80.69
2018-06-30T01:09:11.241Z,80.69
2018-06-30T01:10:21.324Z,80.69
2018-06-30T01:11:31.394Z,80.89
2018-06-30T01:12:40.932Z,80.51
2018-06-30T01:13:51.025Z,80.79
2018-06-30T01:15:01.096Z,80.6
2018-06-30T01:16:11.166Z,80.69
2018-06-30T01:17:21.237Z,80.89
2018-06-30T01:18:31.332Z,80.69
2018-06-30T01:19:41.414Z,80.69
2018-06-30T01:20:51.488Z,80.79
2018-06-30T01:22:01.593Z,80.6
2018-06-30T01:23:11.665Z,80.6
2018-06-30T01:24:21.529Z,81.09
2018-06-30T01:25:31.605Z,80.69
2018-06-30T01:26:41.706Z,80.89
2018-06-30T01:27:51.788Z,80.69
2018-06-30T01:29:01.875Z,80.79
2018-06-30T01:30:12.009Z,80.69
2018-06-30T01:31:21.550Z,80.79
2018-06-30T01:32:31.624Z,80.79
2018-06-30T01:33:41.437Z,81.09
2018-06-30T01:34:51.518Z,80.79
2018-06-30T01:36:01.576Z,80.79
2018-06-30T01:37:11.123Z,80.69
2018-06-30T01:38:20.958Z,80.69
2018-06-30T01:39:30.770Z,80.69
2018-06-30T01:40:40.838Z,80.69
2018-06-30T01:41:50.640Z,80.6
2018-06-30T01:43:00.717Z,80.76
2018-06-30T01:44:10.810Z,80.79
2018-06-30T01:45:20.886Z,80.69
2018-06-30T01:46:30.752Z,80.69
2018-06-30T01:47:40.834Z,80.89
2018-06-30T01:48:50.934Z,80.76
2018-06-30T01:50:01.041Z,80.99
2018-06-30T01:51:10.901Z,80.79
2018-06-30T01:52:20.729Z,80.85
2018-06-30T01:53:30.816Z,80.66
2018-06-30T01:54:40.888Z,80.56
2018-06-30T01:55:50.963Z,80.66
2018-06-30T01:57:00.779Z,80.76
2018-06-30T01:58:10.614Z,80.76
2018-06-30T01:59:20.689Z,80.56
2018-06-30T02:00:30.500Z,80.79
2018-06-30T02:01:40.586Z,80.37
2018-06-30T02:02:50.658Z,80.76
2018-06-30T02:04:00.722Z,80.76
2018-06-30T02:05:10.787Z,80.85
2018-06-30T02:06:20.632Z,80.85
2018-06-30T02:07:30.709Z,80.76
2018-06-30T02:08:40.774Z,80.66
2018-06-30T02:09:50.591Z,80.94
2018-06-30T02:11:00.670Z,80.56
2018-06-30T02:12:10.725Z,80.66
2018-06-30T02:13:20.795Z,80.94
2018-06-30T02:14:30.875Z,81.04
2018-06-30T02:15:40.939Z,80.94
2018-06-30T02:16:50.769Z,80.56
2018-06-30T02:18:00.837Z,81.04
2018-06-30T02:19:10.916Z,80.66
2018-06-30T02:20:21.008Z,80.66
2018-06-30T02:21:31.143Z,80.85
2018-06-30T02:22:41.316Z,80.76
2018-06-30T02:23:51.393Z,80.76
2018-06-30T02:25:01.472Z,80.76
2018-06-30T02:26:11.297Z,80.76
2018-06-30T02:27:21.099Z,80.66
2018-06-30T02:28:31.023Z,80.66
2018-06-30T02:29:41.101Z,80.76
2018-06-30T02:30:50.919Z,80.56
2018-06-30T02:32:00.728Z,80.76
2018-06-30T02:33:10.810Z,80.56
2018-06-30T02:34:20.677Z,80.76
2018-06-30T02:35:30.477Z,81.04
2018-06-30T02:36:40.579Z,80.66
2018-06-30T02:37:50.380Z,80.66
2018-06-30T02:39:00.606Z,80.66
2018-06-30T02:40:10.705Z,80.56
2018-06-30T02:41:20.776Z,81.14
2018-06-30T02:42:30.854Z,80.66
2018-06-30T02:43:40.938Z,80.76
2018-06-30T02:44:50.742Z,80.85
2018-06-30T02:46:00.778Z,80.66
2018-06-30T02:47:11.464Z,81.04
2018-06-30T02:48:21.534Z,80.76
2018-06-30T02:49:31.660Z,80.66
2018-06-30T02:50:41.732Z,80.76
2018-06-30T02:51:51.542Z,80.56
2018-06-30T02:53:01.625Z,80.66
2018-06-30T02:54:11.430Z,80.66
2018-06-30T02:55:21.504Z,80.56
2018-06-30T02:56:31.567Z,80.85
2018-06-30T02:57:41.625Z,80.85
2018-06-30T02:58:51.702Z,80.76
2018-06-30T03:00:01.790Z,80.85
2018-06-30T03:01:11.886Z,80.66
2018-06-30T03:02:21.974Z,80.85
2018-06-30T03:34:39.319Z,74.48
2018-06-30T03:35:49.371Z,74.67
2018-06-30T03:36:59.436Z,75.44
2018-06-30T03:38:09.494Z,76.31
2018-06-30T03:39:19.314Z,76.4
2018-06-30T03:40:29.423Z,77.46
2018-06-30T03:41:39.510Z,77.98
2018-06-30T03:42:49.588Z,78.46
2018-06-30T03:43:59.673Z,78.56
2018-06-30T03:45:09.738Z,78.46
2018-06-30T03:46:19.624Z,79.08
2018-06-30T03:47:29.919Z,79.27
2018-06-30T03:48:39.991Z,79.27
2018-06-30T03:49:50.055Z,79.56
2018-06-30T03:50:59.856Z,79.69
2018-06-30T03:52:09.931Z,79.5
2018-06-30T03:53:19.997Z,79.5
2018-06-30T03:54:30.074Z,79.31
2018-06-30T03:55:40.143Z,79.5
2018-06-30T03:56:49.964Z,79.44
2018-06-30T03:58:00.044Z,79.44
2018-06-30T03:59:10.112Z,79.44
2018-06-30T04:00:19.914Z,79.54
2018-06-30T04:01:29.995Z,79.49
2018-06-30T04:02:39.812Z,79.58
2018-06-30T04:03:49.613Z,79.58
2018-06-30T04:04:59.156Z,79.49
2018-06-30T04:06:09.235Z,79.39
2018-06-30T04:07:19.305Z,79.43
2018-06-30T04:08:29.384Z,79.52
2018-06-30T04:09:39.443Z,79.62
2018-06-30T04:10:49.242Z,79.52
2018-06-30T04:11:59.530Z,79.62
2018-06-30T04:13:09.092Z,79.52
2018-06-30T04:14:19.160Z,79.52
2018-06-30T04:15:29.281Z,79.52
2018-06-30T04:16:39.341Z,79.52
2018-06-30T04:17:49.410Z,79.52
2018-06-30T04:18:59.473Z,79.33
2018-06-30T04:20:09.558Z,79.43
2018-06-30T04:21:19.393Z,79.62
2018-06-30T04:22:29.450Z,79.72
2018-06-30T04:23:39.281Z,79.81
2018-06-30T04:24:49.347Z,79.56
2018-06-30T04:25:59.420Z,79.75
2018-06-30T04:27:09.483Z,79.47
2018-06-30T04:28:19.296Z,79.17
2018-06-30T04:29:29.360Z,79.27
2018-06-30T04:30:39.174Z,79.27
2018-06-30T04:31:49.244Z,79.5
2018-06-30T04:32:59.086Z,79.22
2018-06-30T04:34:08.658Z,79.12
2018-06-30T04:35:18.462Z,75.81
2018-06-30T04:36:28.518Z,73.54
2018-06-30T04:37:38.572Z,72.71
2018-06-30T04:38:48.426Z,70.78
2018-06-30T04:39:58.515Z,70.17
2018-06-30T04:41:08.608Z,69.49
2018-06-30T04:42:18.670Z,70.04
2018-06-30T04:43:28.482Z,69.59
2018-06-30T04:44:38.561Z,69.43
2018-06-30T04:45:48.650Z,69.37
2018-06-30T04:46:58.466Z,69.7
2018-06-30T04:48:08.539Z,69.82
2018-06-30T04:49:18.360Z,70.02
2018-06-30T04:50:28.195Z,70.7
2018-06-30T04:51:38.256Z,70.61
2018-06-30T04:52:48.352Z,70.41
2018-06-30T04:53:58.427Z,72.02
2018-06-30T04:55:08.510Z,73.93
2018-06-30T04:56:18.586Z,73.93
2018-06-30T04:57:28.672Z,73.4
2018-06-30T04:58:38.985Z,72.49
2018-06-30T04:59:49.046Z,73.41
2018-06-30T05:00:59.135Z,72.59
2018-06-30T05:02:09.217Z,71.98
2018-06-30T05:03:19.288Z,71.72
2018-06-30T05:04:29.361Z,70.68
2018-06-30T05:05:39.438Z,70.71
2018-06-30T05:06:49.255Z,70.75
2018-06-30T05:07:59.381Z,70.26
2018-06-30T05:09:09.459Z,70.29
2018-06-30T05:10:19.270Z,70.09
2018-06-30T05:11:29.343Z,70.23
2018-06-30T05:12:39.224Z,71.41
2018-06-30T05:13:49.447Z,74.1
2018-06-30T05:14:59.528Z,73.99
2018-06-30T05:16:09.600Z,73.86
2018-06-30T05:17:19.672Z,72.82
2018-06-30T05:18:29.737Z,71.42
2018-06-30T05:19:39.863Z,70.9
2018-06-30T05:20:49.930Z,72.02
2018-06-30T05:21:59.725Z,74.46
2018-06-30T05:23:09.819Z,75.2
2018-06-30T05:24:19.917Z,74.48
2018-06-30T05:25:30.033Z,75.93
2018-06-30T05:26:39.864Z,76.74
2018-06-30T05:27:49.682Z,76.86
2018-06-30T05:28:59.498Z,76.63
2018-06-30T05:30:09.319Z,77.4
2018-06-30T05:31:19.393Z,78.2
2018-06-30T05:32:29.470Z,78.66
2018-06-30T05:33:40.028Z,79.39
2018-06-30T05:34:50.571Z,79.25
2018-06-30T05:36:00.124Z,79.32
2018-06-30T05:37:09.671Z,79.57
2018-06-30T05:38:19.462Z,79.28
2018-06-30T05:39:29.536Z,79.33
2018-06-30T05:40:39.621Z,79.43
2018-06-30T05:41:49.173Z,79.33
2018-06-30T05:42:59.253Z,78.94
2018-06-30T05:44:09.085Z,78.33
2018-06-30T05:45:19.165Z,78.91
2018-06-30T05:46:29.492Z,79
2018-06-30T05:47:39.302Z,78.33
2018-06-30T05:48:49.152Z,77.26
2018-06-30T05:49:59.218Z,73.68
2018-06-30T05:51:09.307Z,71.53
2018-06-30T05:52:19.379Z,70.95
2018-06-30T05:53:29.463Z,70.89
2018-06-30T05:54:39.525Z,71.02
2018-06-30T05:55:49.616Z,72.45
2018-06-30T05:56:59.702Z,73.55
2018-06-30T05:58:09.780Z,74.58
2018-06-30T05:59:19.679Z,74.84
2018-06-30T06:00:29.652Z,75.13
2018-06-30T06:01:39.728Z,74.61
2018-06-30T06:02:49.809Z,72.73
2018-06-30T06:03:59.679Z,71.22
2018-06-30T06:05:09.777Z,71.15
2018-06-30T06:06:19.580Z,70.61
2018-06-30T06:07:29.650Z,70.7
2018-06-30T06:08:39.727Z,72.62
2018-06-30T06:09:50.093Z,73.97
2018-06-30T06:11:00.531Z,75.26
2018-06-30T06:12:10.610Z,75.78
2018-06-30T06:13:20.699Z,76.77
2018-06-30T06:14:30.795Z,76.87
2018-06-30T06:15:40.877Z,76.28
2018-06-30T06:16:50.950Z,74.86
2018-06-30T06:18:00.517Z,73.93
2018-06-30T06:19:10.339Z,74.41
2018-06-30T06:20:20.429Z,75.64
2018-06-30T06:21:30.233Z,76.09
2018-06-30T06:22:40.313Z,76.44
2018-06-30T06:23:50.393Z,76.73
2018-06-30T06:25:00.204Z,76.79
2018-06-30T06:26:10.357Z,76.4
2018-06-30T06:27:20.430Z,75.18
2018-06-30T06:28:30.711Z,73.5
2018-06-30T06:29:40.874Z,72.83
2018-06-30T06:30:50.943Z,73.41
2018-06-30T06:32:01.019Z,73.38
2018-06-30T06:33:11.112Z,73.77
2018-06-30T06:34:21.200Z,73.77
2018-06-30T06:35:31.080Z,73.28
2018-06-30T06:36:41.174Z,71.6
2018-06-30T06:37:51.212Z,71.83
2018-06-30T06:39:01.267Z,72.71
2018-06-30T06:40:11.353Z,74.13
2018-06-30T06:41:21.427Z,74.65
2018-06-30T06:42:31.523Z,75.74
2018-06-30T06:43:41.595Z,76.67
2018-06-30T06:44:51.427Z,77.08
2018-06-30T06:46:01.510Z,77.04
2018-06-30T06:47:11.385Z,77.34
2018-06-30T06:48:21.463Z,77.82
2018-06-30T06:49:31.547Z,77.72
2018-06-30T06:50:41.625Z,77.24
2018-06-30T06:51:51.430Z,76.75
2018-06-30T06:53:01.568Z,76.17
2018-06-30T06:54:11.656Z,76.31
2018-06-30T06:55:21.482Z,76.11
2018-06-30T06:56:31.646Z,75.18
2018-06-30T06:57:41.731Z,74.98
2018-06-30T06:58:51.815Z,73.75
2018-06-30T07:00:01.890Z,74.38
2018-06-30T07:01:11.975Z,73.83
2018-06-30T07:02:22.063Z,73.28
2018-06-30T07:03:32.177Z,72.44
2018-06-30T07:04:42.550Z,72.77
2018-06-30T07:05:52.638Z,72.19
2018-06-30T07:07:02.714Z,72.02
2018-06-30T07:08:12.650Z,71.57
2018-06-30T07:09:22.721Z,71.77
2018-06-30T07:10:32.864Z,71.67
2018-06-30T07:11:42.953Z,71.77
2018-06-30T07:12:53.018Z,72.39
2018-06-30T07:14:02.561Z,73.52
2018-06-30T07:15:12.554Z,74.13
2018-06-30T07:16:22.627Z,74.78
2018-06-30T07:17:32.445Z,74.45
2018-06-30T07:18:42.512Z,75.03
2018-06-30T07:19:52.333Z,74.93
2018-06-30T07:21:02.438Z,75.78
2018-06-30T07:22:12.256Z,75.93
2018-06-30T07:23:22.347Z,76.51
2018-06-30T07:24:32.479Z,76.67
2018-06-30T07:25:42.858Z,76.44
2018-06-30T07:26:52.684Z,76.34
2018-06-30T07:28:02.771Z,76.18
2018-06-30T07:29:12.840Z,76.09
2018-06-30T07:30:22.931Z,76.09
2018-06-30T07:31:33.040Z,76.34
2018-06-30T07:32:43.116Z,76.89
2018-06-30T07:33:53.200Z,77.34
2018-06-30T07:35:03.013Z,77.34
2018-06-30T07:36:12.837Z,77.29
2018-06-30T07:37:23.140Z,77.11
2018-06-30T07:38:33.406Z,77.2
2018-06-30T07:39:43.228Z,77.2
2018-06-30T07:40:53.296Z,77.01
2018-06-30T07:42:03.584Z,76.91
2018-06-30T07:43:13.718Z,77.36
2018-06-30T07:44:24.119Z,76.68
2018-06-30T07:45:34.194Z,77.11
2018-06-30T07:46:44.302Z,76.81
2018-06-30T07:47:54.385Z,77.06
2018-06-30T07:49:04.707Z,76.19
2018-06-30T07:50:14.664Z,76.62
2018-06-30T07:51:25.000Z,77.06
2018-06-30T07:52:35.083Z,77.06
2018-06-30T07:53:44.929Z,76.83
2018-06-30T07:54:54.741Z,76.35
2018-06-30T07:56:04.904Z,76.1
2018-06-30T07:57:14.656Z,76.04
2018-06-30T07:58:24.495Z,76.58
2018-06-30T07:59:34.581Z,76.58
2018-06-30T08:00:44.428Z,76.58
2018-06-30T08:01:54.529Z,76.87
2018-06-30T08:03:04.733Z,76
2018-06-30T08:04:15.020Z,75.45
2018-06-30T08:05:25.129Z,75.4
2018-06-30T08:06:35.227Z,74.27
2018-06-30T08:07:45.330Z,73.82
2018-06-30T08:08:55.463Z,73.02
2018-06-30T08:10:05.820Z,73.44
2018-06-30T08:11:15.908Z,72.96
2018-06-30T08:12:25.733Z,72.96
2018-06-30T08:13:35.837Z,73.86
2018-06-30T08:14:45.933Z,73.83
2018-06-30T08:15:55.772Z,73.99
2018-06-30T08:17:05.876Z,74.63
2018-06-30T08:18:15.972Z,74.67
2018-06-30T08:19:25.791Z,74.28
2018-06-30T08:20:35.927Z,74.28
2018-06-30T08:21:45.743Z,74.48
2018-06-30T08:22:55.852Z,73.89
2018-06-30T08:24:05.949Z,75.25
2018-06-30T08:25:16.048Z,76.34
2018-06-30T08:26:26.196Z,76.69
2018-06-30T08:27:36.291Z,76.95
2018-06-30T08:28:46.126Z,77.2
2018-06-30T08:29:56.202Z,77.69
2018-06-30T08:31:06.303Z,77.94
2018-06-30T08:32:16.424Z,78.38
2018-06-30T08:33:26.525Z,78.38
2018-06-30T08:34:36.608Z,78.25
2018-06-30T08:35:46.684Z,77.96
2018-06-30T08:36:56.768Z,77.67
2018-06-30T08:38:06.845Z,77.42
2018-06-30T08:39:16.918Z,76.48
2018-06-30T08:40:27.003Z,76.68
2018-06-30T08:41:36.816Z,76.52
2018-06-30T08:42:46.640Z,76.72
2018-06-30T08:43:56.469Z,76.62
2018-06-30T08:45:06.562Z,76.29
2018-06-30T08:46:16.636Z,77.06
2018-06-30T08:47:26.482Z,76.87
2018-06-30T08:48:36.566Z,76.87
2018-06-30T08:49:46.648Z,76.48
2018-06-30T08:50:56.758Z,76.48
2018-06-30T08:52:06.903Z,76.48
2018-06-30T08:53:16.965Z,76.29
2018-06-30T08:54:27.073Z,75.94
2018-06-30T08:55:37.128Z,76.58
2018-06-30T08:56:47.165Z,76
2018-06-30T08:57:57.013Z,76
2018-06-30T08:59:07.077Z,74.97
2018-06-30T09:00:17.156Z,75.55
2018-06-30T09:01:26.974Z,75.2
2018-06-30T09:02:37.064Z,74.62
2018-06-30T09:03:47.133Z,74.71
2018-06-30T09:04:57.206Z,74.52
2018-06-30T09:06:07.285Z,74.56
2018-06-30T09:07:17.506Z,74.65
2018-06-30T09:08:27.595Z,74.75
2018-06-30T09:09:37.427Z,75.24
2018-06-30T09:10:47.737Z,75.3
2018-06-30T09:11:58.030Z,74.75
2018-06-30T09:13:08.441Z,74.37
2018-06-30T09:14:18.325Z,74.21
2018-06-30T09:15:28.440Z,73.91
2018-06-30T09:16:38.520Z,74.21
2018-06-30T09:17:48.584Z,74.54
2018-06-30T09:18:58.428Z,73.95
2018-06-30T09:20:08.264Z,73.69
2018-06-30T09:21:18.505Z,73.63
2018-06-30T09:22:28.301Z,73.63
2018-06-30T09:23:38.126Z,72.6
2018-06-30T09:24:48.246Z,72.34
2018-06-30T09:25:58.377Z,71.47
2018-06-30T09:27:08.480Z,71.99
2018-06-30T09:28:18.582Z,72.19
2018-06-30T09:29:28.677Z,72.67
2018-06-30T09:30:38.782Z,72.92
2018-06-30T09:31:48.333Z,73.41
2018-06-30T09:32:58.409Z,72.77
2018-06-30T09:34:08.498Z,72.22
2018-06-30T09:35:18.318Z,72.49
2018-06-30T09:36:28.402Z,72.74
2018-06-30T09:37:38.487Z,72.94
2018-06-30T09:38:48.051Z,72.35
2018-06-30T09:39:57.865Z,72.39
2018-06-30T09:41:07.949Z,71.55
2018-06-30T09:42:18.037Z,71.84
2018-06-30T09:43:28.121Z,72.91
2018-06-30T09:44:38.297Z,73.17
2018-06-30T09:45:48.687Z,73.72
2018-06-30T09:46:58.257Z,73.68
2018-06-30T09:48:08.083Z,73.68
2018-06-30T09:49:18.199Z,73.49
2018-06-30T09:50:28.285Z,74.46
2018-06-30T09:51:38.371Z,74.04
2018-06-30T09:52:48.191Z,74.68
2018-06-30T09:53:57.994Z,74.39
2018-06-30T09:55:07.806Z,73.55
2018-06-30T09:56:17.879Z,73.49
2018-06-30T09:57:27.723Z,73.29
2018-06-30T09:58:37.809Z,73.43
2018-06-30T09:59:47.888Z,72.74
2018-06-30T10:00:57.960Z,72.49
2018-06-30T10:02:08.027Z,72.58
2018-06-30T10:03:17.846Z,72.52
2018-06-30T10:04:27.947Z,72.62
2018-06-30T10:05:37.821Z,72.62
2018-06-30T10:06:48.052Z,72.62
2018-06-30T10:07:58.453Z,72.62
2018-06-30T10:09:08.704Z,73.21
2018-06-30T10:10:19.158Z,74.05
2018-06-30T10:11:28.739Z,74.6
2018-06-30T10:12:38.875Z,74.76
2018-06-30T10:13:49.324Z,75.24
2018-06-30T10:14:59.444Z,75.3
2018-06-30T10:16:09.268Z,75.01
2018-06-30T10:17:19.525Z,75.26
2018-06-30T10:18:29.366Z,75.2
2018-06-30T10:19:39.520Z,75.1
2018-06-30T10:20:49.706Z,75.65
2018-06-30T10:21:59.751Z,75.75
2018-06-30T10:23:09.873Z,75.71
2018-06-30T10:24:19.971Z,75.32
2018-06-30T10:25:29.843Z,75.62
2018-06-30T10:26:39.914Z,75.52
2018-06-30T10:27:50.003Z,75.23
2018-06-30T10:29:00.093Z,74.13
2018-06-30T10:30:10.180Z,74.46
2018-06-30T10:31:20.377Z,73.82
2018-06-30T10:32:30.699Z,74.69
2018-06-30T10:33:40.551Z,74.43
2018-06-30T10:34:50.690Z,75.75
2018-06-30T10:36:00.803Z,75.52
2018-06-30T10:37:10.885Z,74.58
2018-06-30T10:38:20.741Z,74.62
2018-06-30T10:39:30.873Z,73.97
2018-06-30T10:40:41.074Z,75.65
2018-06-30T10:41:51.143Z,76.3
2018-06-30T10:43:01.281Z,76.35
2018-06-30T10:44:10.832Z,75.68
2018-06-30T10:45:20.903Z,75.23
2018-06-30T10:46:30.996Z,74.93
2018-06-30T10:47:41.190Z,74.49
2018-06-30T10:48:51.021Z,75.56
2018-06-30T10:50:01.130Z,75.71
2018-06-30T10:51:11.234Z,75.54
2018-06-30T10:52:21.322Z,75.19
2018-06-30T10:53:32.941Z,75.42
2018-06-30T10:54:43.030Z,75.62
2018-06-30T10:55:52.877Z,75.71
2018-06-30T10:57:03.044Z,75.71
2018-06-30T10:58:13.132Z,76.55
2018-06-30T10:59:23.228Z,76.26
2018-06-30T11:00:33.225Z,76.32
2018-06-30T11:01:43.443Z,76.26
2018-06-30T11:02:53.284Z,76.35
2018-06-30T11:04:03.221Z,76.26
2018-06-30T11:05:13.628Z,76.12
2018-06-30T11:06:24.300Z,76.45
2018-06-30T11:07:34.386Z,76.17
2018-06-30T11:08:44.468Z,76.35
2018-06-30T11:09:54.555Z,76.35
2018-06-30T11:11:04.649Z,76.26
2018-06-30T11:12:14.929Z,76.17
2018-06-30T11:13:24.514Z,76.26
2018-06-30T11:14:34.350Z,76.07
2018-06-30T11:15:44.453Z,76.17
2018-06-30T11:16:54.556Z,76.35
2018-06-30T11:18:04.378Z,76.26
2018-06-30T11:19:13.951Z,76.26
2018-06-30T11:20:24.042Z,76.17
2018-06-30T11:21:34.136Z,76.26
2018-06-30T11:22:44.195Z,76.35
2018-06-30T11:23:54.288Z,76.45
2018-06-30T11:25:04.455Z,76.45
2018-06-30T11:26:14.283Z,76.35
2018-06-30T11:27:24.375Z,76.35
2018-06-30T11:28:34.263Z,76.45
2018-06-30T11:29:44.358Z,76.26
2018-06-30T11:30:54.465Z,76.26
2018-06-30T11:32:04.313Z,76.26
2018-06-30T11:33:14.393Z,76.45
2018-06-30T11:34:24.246Z,76.26
2018-06-30T11:35:33.821Z,76.45
2018-06-30T11:36:43.914Z,76.17
2018-06-30T11:37:54.035Z,76.75
2018-06-30T11:39:04.144Z,76.75
2018-06-30T11:40:14.316Z,76.26
2018-06-30T11:41:24.435Z,76.17
2018-06-30T11:42:34.528Z,76.26
2018-06-30T11:43:44.607Z,76.17
2018-06-30T11:44:54.691Z,76.75
2018-06-30T11:46:04.818Z,76.65
2018-06-30T11:47:14.635Z,76.35
2018-06-30T11:48:24.465Z,76.45
2018-06-30T11:49:34.301Z,76.26
2018-06-30T11:50:44.407Z,76.35
2018-06-30T11:51:54.517Z,76.45
2018-06-30T11:53:04.405Z,76.26
2018-06-30T11:54:14.506Z,76.65
2018-06-30T11:55:24.608Z,76.75
2018-06-30T11:56:34.684Z,76.26
2018-06-30T11:57:44.817Z,76.42
2018-06-30T11:58:54.650Z,76.75
2018-06-30T12:00:04.998Z,76.65
2018-06-30T12:01:14.841Z,76.45
2018-06-30T12:02:24.944Z,76.75
2018-06-30T12:03:35.181Z,76.26
2018-06-30T12:04:45.567Z,76.45
2018-06-30T12:05:55.653Z,76.45
2018-06-30T12:07:05.763Z,76.45
2018-06-30T12:08:15.847Z,76.26
2018-06-30T12:09:26.195Z,76.75
2018-06-30T12:10:36.350Z,76.55
2018-06-30T12:11:46.424Z,76.22
2018-06-30T12:12:56.524Z,76.26
2018-06-30T12:14:06.629Z,76.26
2018-06-30T12:15:16.917Z,76.22
2018-06-30T12:16:27.012Z,76.71
2018-06-30T12:17:37.104Z,76.75
2018-06-30T12:18:47.212Z,76.26
2018-06-30T12:19:57.299Z,76.26
2018-06-30T12:21:07.148Z,76.45
2018-06-30T12:22:17.286Z,76.45
2018-06-30T12:23:27.358Z,76.07
2018-06-30T12:24:37.445Z,76.07
2018-06-30T12:25:47.547Z,76.26
2018-06-30T12:26:57.379Z,76.26
2018-06-30T12:28:07.460Z,76.26
2018-06-30T12:29:17.022Z,76.35
2018-06-30T12:30:27.265Z,76.17
2018-06-30T12:31:37.455Z,76.75
2018-06-30T12:32:47.559Z,76.55
2018-06-30T12:33:57.685Z,76.75
2018-06-30T12:35:08.092Z,76.75
2018-06-30T12:36:18.186Z,76.45
2018-06-30T12:37:28.274Z,76.17
2018-06-30T12:38:38.370Z,76.45
2018-06-30T12:39:48.475Z,76.26
2018-06-30T12:40:58.282Z,76.07
2018-06-30T12:42:08.376Z,76.17
2018-06-30T12:43:18.210Z,76.26
2018-06-30T12:44:28.347Z,76.4
2018-06-30T12:45:38.486Z,76.3
2018-06-30T12:46:48.567Z,76.35
2018-06-30T12:47:58.391Z,76.5
2018-06-30T12:49:08.504Z,76.45
2018-06-30T12:50:18.597Z,76.26
2018-06-30T12:51:28.727Z,76.84
2018-06-30T12:52:38.809Z,76.65
2018-06-30T12:53:48.906Z,76.55
2018-06-30T12:54:59.189Z,76.75
2018-06-30T12:56:09.299Z,76.4
2018-06-30T12:57:19.705Z,76.26
2018-06-30T12:58:29.534Z,76.2
2018-06-30T12:59:39.384Z,76.4
2018-06-30T13:00:49.468Z,76.4
2018-06-30T13:01:59.365Z,76.5
2018-06-30T13:03:09.474Z,76.78
2018-06-30T13:04:19.578Z,76.59
2018-06-30T13:05:29.691Z,76.78
2018-06-30T13:06:39.788Z,76.65
2018-06-30T13:07:49.909Z,76.55
2018-06-30T13:09:00.105Z,77.04
2018-06-30T13:10:09.949Z,76.55
2018-06-30T13:11:20.040Z,76.65
2018-06-30T13:12:30.168Z,76.65
2018-06-30T13:13:40.240Z,76.65
2018-06-30T13:14:50.353Z,76.65
2018-06-30T13:16:00.470Z,76.65
2018-06-30T13:17:10.561Z,76.84
2018-06-30T13:18:20.641Z,76.65
2018-06-30T13:19:30.731Z,76.84
2018-06-30T13:20:40.877Z,76.65
2018-06-30T13:21:50.981Z,76.94
2018-06-30T13:23:01.056Z,76.65
2018-06-30T13:24:11.049Z,76.84
2018-06-30T13:25:20.897Z,76.55
2018-06-30T13:26:30.981Z,76.75
2018-06-30T13:27:40.841Z,76.84
2018-06-30T13:28:51.081Z,76.94
2018-06-30T13:30:01.418Z,76.84
2018-06-30T13:31:11.530Z,76.75
2018-06-30T13:32:21.686Z,76.75
2018-06-30T13:33:31.791Z,76.51
2018-06-30T13:34:41.616Z,76.51
2018-06-30T13:35:51.729Z,77.29
2018-06-30T13:37:01.833Z,76.81
2018-06-30T13:38:11.698Z,76.81
2018-06-30T13:39:21.777Z,77.1
2018-06-30T13:40:31.889Z,76.51
2018-06-30T13:41:42.054Z,76.51
2018-06-30T13:42:51.903Z,76.61
2018-06-30T13:44:02.006Z,76.51
2018-06-30T13:45:12.106Z,76.51
2018-06-30T13:46:21.984Z,76.57
2018-06-30T13:47:31.676Z,76.9
2018-06-30T13:48:41.783Z,76.81
2018-06-30T13:49:51.868Z,76.61
2018-06-30T13:51:01.959Z,76.71
2018-06-30T13:52:12.065Z,76.51
2018-06-30T13:53:21.949Z,76.51
2018-06-30T13:54:32.041Z,76.61
2018-06-30T13:55:42.165Z,76.61
2018-06-30T13:56:52.234Z,76.51
2018-06-30T13:58:02.342Z,76.81
2018-06-30T13:59:12.427Z,76.61
2018-06-30T14:00:22.010Z,76.51
2018-06-30T14:01:32.098Z,76.61
2018-06-30T14:02:42.217Z,76.51
2018-06-30T14:03:52.319Z,76.81
2018-06-30T14:05:02.431Z,76.71
2018-06-30T14:06:12.633Z,76.81
2018-06-30T14:07:22.717Z,76.71
2018-06-30T14:08:32.829Z,76.61
2018-06-30T14:09:42.925Z,76.48
2018-06-30T14:10:52.745Z,77.15
2018-06-30T14:12:02.832Z,76.87
2018-06-30T14:13:13.249Z,76.97
2018-06-30T14:14:23.093Z,76.67
2018-06-30T14:15:33.223Z,76.38
2018-06-30T14:16:43.323Z,76.48
2018-06-30T14:18:12.685Z,76.48
2018-06-30T14:19:22.857Z,76.48
2018-06-30T14:20:32.953Z,76.48
2018-06-30T14:21:43.051Z,76.67
2018-06-30T14:22:53.128Z,76.57
2018-06-30T14:24:03.279Z,76.57
2018-06-30T14:25:13.122Z,76.77
2018-06-30T14:26:23.219Z,76.38
2018-06-30T14:27:33.314Z,76.48
2018-06-30T14:28:43.548Z,76.87
2018-06-30T14:29:53.687Z,76.77
2018-06-30T14:31:03.766Z,76.77
2018-06-30T14:32:13.868Z,76.48
2018-06-30T14:33:23.979Z,76.97
2018-06-30T14:34:34.115Z,77.06
2018-06-30T14:35:44.201Z,76.87
2018-06-30T14:36:54.285Z,76.97
2018-06-30T14:38:04.401Z,76.67
2018-06-30T14:39:14.731Z,76.92
2018-06-30T14:40:24.551Z,76.92
2018-06-30T14:41:34.630Z,76.92
2018-06-30T14:42:44.724Z,76.73
2018-06-30T14:43:54.902Z,76.44
2018-06-30T14:45:05.009Z,76.83
2018-06-30T14:46:14.832Z,76.69
2018-06-30T14:47:24.968Z,76.83
2018-06-30T14:48:34.528Z,76.83
2018-06-30T14:49:44.621Z,76.83
2018-06-30T14:50:54.727Z,76.92
2018-06-30T14:52:04.825Z,76.83
2018-06-30T14:53:14.662Z,76.92
2018-06-30T14:54:24.753Z,76.73
2018-06-30T14:55:34.854Z,77.02
2018-06-30T14:56:44.674Z,76.73
2018-06-30T14:57:54.774Z,76.83
2018-06-30T14:59:04.891Z,76.73
2018-06-30T15:00:14.971Z,76.73
2018-06-30T15:01:25.067Z,76.44
2018-06-30T15:02:34.881Z,76.64
2018-06-30T15:03:44.968Z,76.44
2018-06-30T15:04:54.810Z,76.73
2018-06-30T15:06:04.902Z,76.4
2018-06-30T15:07:15.053Z,76.69
2018-06-30T15:08:25.388Z,76.69
2018-06-30T15:09:35.211Z,76.5
2018-06-30T15:10:45.052Z,76.79
2018-06-30T15:11:54.896Z,76.69
2018-06-30T15:13:05.165Z,76.79
2018-06-30T15:14:15.013Z,76.6
2018-06-30T15:15:25.102Z,76.79
2018-06-30T15:16:36.045Z,76.98
2018-06-30T15:17:45.866Z,76.89
2018-06-30T15:18:56.116Z,77.08
2018-06-30T15:20:06.353Z,77.18
2018-06-30T15:21:16.456Z,76.85
2018-06-30T15:22:26.549Z,76.89
2018-06-30T15:23:36.635Z,76.69
2018-06-30T15:24:46.728Z,76.79
2018-06-30T15:25:56.902Z,77.08
2018-06-30T15:27:06.987Z,76.89
2018-06-30T15:28:17.075Z,76.98
2018-06-30T15:29:26.677Z,77.18
2018-06-30T15:30:36.774Z,76.98
2018-06-30T15:31:46.865Z,76.98
2018-06-30T15:32:56.685Z,77.14
2018-06-30T15:34:06.524Z,76.89
2018-06-30T15:35:16.614Z,76.95